Griffith Spring, Arkansas
Current Conditions -  °F | °C
As of 11:53 AM on Sunday 25 Jan 2015 (Local Time) from KPBF Reporting Station
Clear Clear  
Wind Chill: 59°   Ceiling: Unl
Heat Index: 59°   Visibility: 10mi
Dew Point: 37°   Wind: 18mph
Humidity: 44%   Direction: 280°W
Pressure: 29.75"   Gusts: 24mph
Location:  33.924°N, 91.8685°W
Report Text: KPBF 251753Z AUTO 28016G21KT 10SM CLR 15/03 A2975 RMK AO2 SLP074 T01500028 10150 20039 58012
Loading
Personal Weather Stations






























Interactive Weather Map New forecast layout! Learn more

10-Day Weather Forecast

Advertisements
Track Severe Weather on mobile